Time;durP1;ratioP1;P1;durP2;ratioP2;P2;SDS_P1;SDS_P2;PMS_P1;PMS_P2;Temp;Humidity;BMP_temperature;BMP_pressure;BME280_temperature;BME280_humidity;BME280_pressure;Samples;Min_cycle;Max_cycle;Signal;HPM_P1;HPM_P2
2024/02/21 00:02:21;;;;;;;6.22;3.38;;;4.10;99.90;;;;;;5030563;28;20034;-32
2024/02/21 00:04:47;;;;;;;4.53;3.47;;;4.10;99.90;;;;;;5015834;28;20036;-32
2024/02/21 00:07:13;;;;;;;4.65;3.28;;;4.10;99.90;;;;;;5026981;28;20040;-34
2024/02/21 00:09:39;;;;;;;4.55;3.50;;;4.10;99.90;;;;;;5029168;28;20043;-35
2024/02/21 00:12:05;;;;;;;5.85;3.10;;;4.10;99.90;;;;;;5022244;28;20037;-32
2024/02/21 00:14:31;;;;;;;7.88;3.42;;;4.20;99.90;;;;;;5020788;28;20057;-33
2024/02/21 00:16:57;;;;;;;3.38;2.97;;;4.20;99.90;;;;;;5020462;28;20099;-35
2024/02/21 00:19:22;;;;;;;3.60;2.78;;;4.10;99.90;;;;;;5025046;28;20055;-33
2024/02/21 00:21:48;;;;;;;3.13;2.83;;;4.10;99.90;;;;;;5028303;28;20079;-34
2024/02/21 00:24:14;;;;;;;4.70;3.15;;;4.10;99.90;;;;;;5021667;28;20453;-34
2024/02/21 00:26:40;;;;;;;4.65;2.65;;;4.10;99.90;;;;;;5022339;28;20033;-33
2024/02/21 00:29:05;;;;;;;3.70;2.72;;;4.10;99.90;;;;;;5029204;28;20029;-33
2024/02/21 00:31:31;;;;;;;6.38;3.40;;;4.00;99.90;;;;;;5017410;28;20038;-33
2024/02/21 00:33:57;;;;;;;4.65;3.05;;;4.00;99.90;;;;;;5029730;28;20059;-34
2024/02/21 00:36:23;;;;;;;6.68;2.83;;;4.10;99.90;;;;;;5007627;28;20487;-33
2024/02/21 00:38:49;;;;;;;3.78;2.50;;;4.00;99.90;;;;;;5022997;28;20029;-32
2024/02/21 00:41:15;;;;;;;5.28;3.00;;;4.10;99.90;;;;;;5019466;28;20583;-41
2024/02/21 00:43:42;;;;;;;8.75;3.35;;;4.00;99.90;;;;;;5006785;28;20053;-43
2024/02/21 00:46:08;;;;;;;3.92;2.72;;;4.00;99.90;;;;;;5005062;28;20044;-42
2024/02/21 00:48:34;;;;;;;4.65;2.78;;;4.00;99.90;;;;;;5005262;28;20029;-41
2024/02/21 00:51:00;;;;;;;4.50;2.85;;;4.10;99.90;;;;;;5021596;28;20045;-41
2024/02/21 00:53:25;;;;;;;4.13;2.88;;;4.00;99.90;;;;;;5024928;28;20025;-41
2024/02/21 00:55:56;;;;;;;5.40;3.15;;;3.80;99.90;;;;;;5021908;28;20033;-36
2024/02/21 00:58:22;;;;;;;6.72;3.50;;;3.80;99.90;;;;;;5025007;28;20565;-35
2024/02/21 01:00:48;;;;;;;3.53;2.97;;;3.60;99.90;;;;;;5028467;28;20502;-41
2024/02/21 01:03:14;;;;;;;5.40;3.50;;;3.70;99.90;;;;;;5004849;28;20032;-41
2024/02/21 01:05:40;;;;;;;6.13;3.20;;;3.70;99.90;;;;;;5011061;28;20027;-42
2024/02/21 01:08:06;;;;;;;4.93;3.15;;;3.80;99.90;;;;;;5024968;28;20044;-40
2024/02/21 01:10:32;;;;;;;5.03;3.35;;;3.80;99.90;;;;;;5022891;28;20112;-40
2024/02/21 01:12:58;;;;;;;7.32;3.42;;;3.90;99.90;;;;;;5031415;28;20041;-42
2024/02/21 01:15:24;;;;;;;4.65;2.47;;;3.90;99.90;;;;;;5002922;28;20033;-41
2024/02/21 01:17:54;;;;;;;11.35;4.20;;;3.90;99.90;;;;;;5021142;28;20026;-42
2024/02/21 01:20:20;;;;;;;56.67;18.10;;;3.90;99.90;;;;;;5025813;28;20022;-40
2024/02/21 01:22:46;;;;;;;49.53;17.77;;;4.00;99.90;;;;;;4996111;28;20022;-41
2024/02/21 01:25:12;;;;;;;36.88;13.60;;;4.00;99.90;;;;;;5029090;28;20042;-43
2024/02/21 01:27:38;;;;;;;50.90;19.35;;;4.00;99.90;;;;;;5023845;28;20052;-42
2024/02/21 01:30:05;;;;;;;93.95;28.13;;;4.00;99.90;;;;;;5012486;28;20115;-43
2024/02/21 01:32:31;;;;;;;143.45;45.70;;;4.00;99.90;;;;;;5010074;28;20037;-40
2024/02/21 01:34:58;;;;;;;109.63;36.63;;;4.00;99.90;;;;;;5026589;28;20526;-38
2024/02/21 01:37:23;;;;;;;75.47;24.80;;;4.00;99.90;;;;;;5029981;28;20025;-41
2024/02/21 01:39:50;;;;;;;21.02;8.35;;;4.00;99.90;;;;;;5025754;28;20544;-40
2024/02/21 01:42:16;;;;;;;27.13;8.93;;;4.00;99.90;;;;;;5027371;28;20033;-45
2024/02/21 01:44:42;;;;;;;4.35;3.90;;;4.00;99.90;;;;;;5031997;28;20494;-41
2024/02/21 01:47:08;;;;;;;12.27;4.78;;;4.00;99.90;;;;;;5014423;28;20061;-37
2024/02/21 01:49:34;;;;;;;12.35;4.80;;;4.00;99.90;;;;;;5028192;28;20033;-42
2024/02/21 01:52:01;;;;;;;8.40;4.60;;;4.10;99.90;;;;;;5030668;28;20026;-30
2024/02/21 01:54:28;;;;;;;7.82;3.33;;;4.10;99.90;;;;;;5029969;28;20036;-36
2024/02/21 01:56:54;;;;;;;15.23;6.38;;;4.10;99.90;;;;;;5026268;28;20032;-34
2024/02/21 01:59:22;;;;;;;19.50;6.63;;;4.00;99.90;;;;;;5015599;28;20067;-32
2024/02/21 02:01:50;;;;;;;6.22;3.00;;;4.10;99.90;;;;;;5037038;28;20943;-32
2024/02/21 02:04:16;;;;;;;4.30;2.05;;;4.10;99.90;;;;;;5008540;28;20022;-32
2024/02/21 02:06:42;;;;;;;8.73;2.95;;;4.10;99.90;;;;;;5027635;28;20036;-34
2024/02/21 02:09:08;;;;;;;11.23;5.00;;;4.10;99.90;;;;;;5010585;28;20672;-33
2024/02/21 02:11:34;;;;;;;6.20;3.40;;;4.10;99.90;;;;;;5029835;28;20036;-32
2024/02/21 02:13:59;;;;;;;12.30;4.65;;;4.10;99.90;;;;;;5024477;28;20025;-32
2024/02/21 02:16:50;;;;;;;23.50;8.30;;;4.00;99.90;;;;;;5028272;28;20034;-31
2024/02/21 02:19:15;;;;;;;11.02;3.72;;;4.00;99.90;;;;;;5019823;28;20782;-34
2024/02/21 02:21:53;;;;;;;13.07;3.45;;;4.10;99.90;;;;;;5025329;28;20029;-34
2024/02/21 02:24:19;;;;;;;8.35;2.95;;;4.10;99.90;;;;;;5003233;28;20052;-33
2024/02/21 02:26:45;;;;;;;5.68;3.08;;;4.10;99.90;;;;;;5027500;28;20048;-32
2024/02/21 02:29:11;;;;;;;13.07;5.43;;;4.10;99.90;;;;;;5025923;28;20033;-35
2024/02/21 02:31:38;;;;;;;48.58;14.70;;;4.10;99.90;;;;;;5029005;28;20725;-39
2024/02/21 02:34:04;;;;;;;41.00;12.65;;;4.10;99.90;;;;;;5019213;28;20510;-42
2024/02/21 02:36:35;;;;;;;123.15;37.90;;;4.10;99.90;;;;;;5023320;28;20029;-40
2024/02/21 02:39:01;;;;;;;111.13;35.42;;;4.10;99.90;;;;;;5002917;28;20025;-38
2024/02/21 02:41:27;;;;;;;99.82;32.53;;;4.10;99.90;;;;;;5011361;28;20498;-40
2024/02/21 02:43:52;;;;;;;96.82;29.42;;;4.10;99.90;;;;;;5023559;28;20025;-34
2024/02/21 02:46:18;;;;;;;61.55;19.35;;;4.10;99.90;;;;;;5025903;28;20033;-40
2024/02/21 02:48:44;;;;;;;42.80;14.77;;;4.00;99.90;;;;;;5023476;28;20032;-38
2024/02/21 02:51:10;;;;;;;26.30;11.18;;;4.00;99.90;;;;;;5023893;28;20033;-42
2024/02/21 02:53:36;;;;;;;16.52;6.78;;;4.10;99.90;;;;;;5024091;28;20040;-37
2024/02/21 02:56:02;;;;;;;11.77;5.45;;;4.10;99.90;;;;;;5021181;28;20037;-39
2024/02/21 02:58:28;;;;;;;11.40;4.35;;;4.00;99.90;;;;;;5005123;28;20167;-40
2024/02/21 03:00:54;;;;;;;5.05;3.40;;;4.00;99.90;;;;;;5032421;28;20108;-43
2024/02/21 03:03:20;;;;;;;6.68;3.63;;;4.10;99.90;;;;;;4992683;28;20029;-41
2024/02/21 03:05:46;;;;;;;3.47;3.17;;;4.10;99.90;;;;;;5027478;28;20032;-41
2024/02/21 03:08:12;;;;;;;4.82;3.15;;;4.10;99.90;;;;;;5009771;28;20284;-41
2024/02/21 03:10:38;;;;;;;6.22;3.15;;;4.10;99.90;;;;;;5029774;28;20029;-40
2024/02/21 03:13:04;;;;;;;3.83;3.20;;;4.10;99.90;;;;;;5007981;28;20080;-39
2024/02/21 03:15:30;;;;;;;6.45;2.70;;;4.10;99.90;;;;;;5024009;28;20041;-41
2024/02/21 03:17:56;;;;;;;3.97;2.38;;;4.20;99.90;;;;;;5005871;28;20044;-34
2024/02/21 03:20:23;;;;;;;3.17;2.65;;;4.20;99.90;;;;;;5022438;28;20053;-40
2024/02/21 03:22:48;;;;;;;13.52;6.82;;;4.20;99.90;;;;;;5006859;28;20021;-41
2024/02/21 03:25:15;;;;;;;32.75;18.00;;;4.00;99.90;;;;;;5001389;28;20390;-41
2024/02/21 03:27:40;;;;;;;26.48;14.45;;;4.00;99.90;;;;;;5020384;28;20029;-41
2024/02/21 03:30:07;;;;;;;25.02;13.90;;;4.00;99.90;;;;;;5022064;28;20044;-38
2024/02/21 03:32:33;;;;;;;15.23;8.65;;;4.00;99.90;;;;;;5029241;28;20514;-40
2024/02/21 03:34:59;;;;;;;11.57;6.28;;;4.00;99.90;;;;;;5024477;28;20033;-42
2024/02/21 03:37:25;;;;;;;7.70;4.72;;;4.00;99.90;;;;;;5027635;28;20430;-42
2024/02/21 03:39:51;;;;;;;6.90;3.65;;;4.10;99.90;;;;;;5020839;28;20060;-37
2024/02/21 03:42:17;;;;;;;4.82;3.05;;;4.10;99.90;;;;;;5031618;28;20517;-35
2024/02/21 03:44:43;;;;;;;7.05;3.40;;;4.10;99.90;;;;;;5035146;28;20025;-30
2024/02/21 03:47:10;;;;;;;4.60;2.50;;;4.10;99.90;;;;;;5026404;28;20026;-33
2024/02/21 03:49:37;;;;;;;5.75;2.03;;;4.10;99.90;;;;;;5020226;28;20516;-31
2024/02/21 03:52:03;;;;;;;3.30;2.40;;;4.20;99.90;;;;;;5023081;28;20112;-31
2024/02/21 03:54:29;;;;;;;5.13;2.67;;;4.30;99.90;;;;;;5027336;28;20044;-32
2024/02/21 03:56:55;;;;;;;5.68;3.42;;;4.30;99.90;;;;;;5030588;28;20033;-34
2024/02/21 03:59:22;;;;;;;2.08;1.88;;;4.30;99.90;;;;;;5025082;28;20030;-31
2024/02/21 04:01:52;;;;;;;4.72;2.65;;;4.40;99.90;;;;;;5040563;28;20029;-33
2024/02/21 04:04:18;;;;;;;3.88;1.98;;;4.30;99.90;;;;;;5025072;28;20018;-30
2024/02/21 04:06:50;;;;;;;2.60;2.17;;;4.30;99.90;;;;;;5017933;28;20030;-31
2024/02/21 04:09:16;;;;;;;7.55;2.35;;;4.40;99.90;;;;;;5025930;28;20657;-31
2024/02/21 04:11:43;;;;;;;3.95;1.95;;;4.40;99.90;;;;;;5026508;28;20056;-34
2024/02/21 04:14:09;;;;;;;4.72;2.20;;;4.40;99.90;;;;;;5019386;28;20040;-34
2024/02/21 04:16:35;;;;;;;8.05;2.65;;;4.40;99.90;;;;;;5024515;28;20562;-34
2024/02/21 04:19:02;;;;;;;3.75;2.30;;;4.40;99.90;;;;;;5024198;28;20116;-34
2024/02/21 04:21:27;;;;;;;3.88;2.47;;;4.40;99.90;;;;;;5021465;28;20026;-34
2024/02/21 04:23:53;;;;;;;4.68;2.30;;;4.30;99.90;;;;;;5022556;28;20040;-39
2024/02/21 04:26:19;;;;;;;3.90;2.75;;;4.30;99.90;;;;;;5009969;28;20116;-32
2024/02/21 04:28:46;;;;;;;3.97;2.45;;;4.30;99.90;;;;;;5022369;28;20030;-34
2024/02/21 04:31:11;;;;;;;5.03;2.35;;;4.40;99.90;;;;;;5023246;28;20033;-37
2024/02/21 04:33:37;;;;;;;3.42;2.47;;;4.30;99.90;;;;;;5022728;28;20047;-33
2024/02/21 04:36:03;;;;;;;3.20;2.13;;;4.30;99.90;;;;;;5009046;28;20078;-33
2024/02/21 04:38:30;;;;;;;6.97;2.63;;;4.30;99.90;;;;;;5024240;28;20083;-34
2024/02/21 04:40:58;;;;;;;5.78;2.58;;;4.30;99.90;;;;;;5024081;28;20025;-32
2024/02/21 04:43:25;;;;;;;3.50;2.13;;;4.30;99.90;;;;;;5025484;28;20030;-37
2024/02/21 04:45:53;;;;;;;3.53;2.47;;;4.30;99.90;;;;;;5020337;28;20030;-34
2024/02/21 04:48:19;;;;;;;4.10;2.65;;;4.30;99.90;;;;;;5026443;28;20399;-31
2024/02/21 04:50:45;;;;;;;3.28;2.50;;;4.20;99.90;;;;;;5021059;28;20041;-34
2024/02/21 04:53:10;;;;;;;5.88;2.28;;;4.20;99.90;;;;;;5023616;28;20045;-37
2024/02/21 04:55:36;;;;;;;4.43;2.15;;;4.20;99.90;;;;;;5008177;28;20037;-36
2024/02/21 04:58:02;;;;;;;6.78;2.38;;;4.30;99.90;;;;;;5020316;28;20037;-32
2024/02/21 05:00:28;;;;;;;3.53;2.40;;;4.30;99.90;;;;;;5035044;28;20106;-41
2024/02/21 05:02:54;;;;;;;4.10;2.05;;;4.20;99.90;;;;;;5025605;28;20057;-39
2024/02/21 05:05:20;;;;;;;3.55;2.05;;;4.20;99.90;;;;;;5026684;28;20106;-39
2024/02/21 05:07:46;;;;;;;1.88;1.70;;;3.80;99.90;;;;;;5021547;28;20158;-41
2024/02/21 05:10:13;;;;;;;2.58;1.45;;;3.50;99.90;;;;;;5023445;28;20044;-34
2024/02/21 05:12:39;;;;;;;2.38;1.90;;;3.30;99.90;;;;;;5004424;28;20072;-42
2024/02/21 05:15:06;;;;;;;5.20;2.20;;;3.30;99.90;;;;;;5022052;28;20479;-42
2024/02/21 05:17:32;;;;;;;2.90;1.90;;;3.40;99.90;;;;;;5024098;28;20053;-43
2024/02/21 05:19:57;;;;;;;2.72;1.80;;;3.50;99.90;;;;;;5003902;28;20025;-39
2024/02/21 05:22:23;;;;;;;1.52;1.42;;;3.50;99.90;;;;;;5027079;28;20104;-32
2024/02/21 05:24:49;;;;;;;2.92;2.00;;;3.40;99.90;;;;;;5021578;28;20057;-34
2024/02/21 05:27:15;;;;;;;3.55;1.80;;;3.50;99.90;;;;;;5004325;28;20181;-33
2024/02/21 05:29:40;;;;;;;2.28;1.60;;;3.60;99.90;;;;;;5028938;28;20033;-34
2024/02/21 05:32:06;;;;;;;2.35;1.80;;;3.70;99.90;;;;;;5024674;28;20041;-35
2024/02/21 05:34:32;;;;;;;2.10;1.90;;;3.80;99.90;;;;;;5027075;28;20072;-34
2024/02/21 05:36:59;;;;;;;2.95;1.60;;;3.90;99.90;;;;;;5021004;28;20065;-34
2024/02/21 05:39:25;;;;;;;1.40;1.30;;;3.90;99.90;;;;;;5026217;28;20029;-33
2024/02/21 05:41:51;;;;;;;2.00;1.88;;;4.00;99.90;;;;;;5027710;28;20036;-38
2024/02/21 05:44:17;;;;;;;2.28;2.08;;;4.00;99.90;;;;;;5007779;28;20034;-35
2024/02/21 05:46:43;;;;;;;2.85;2.08;;;4.00;99.90;;;;;;5020260;28;20394;-33
2024/02/21 05:49:08;;;;;;;2.33;1.98;;;4.00;99.90;;;;;;5021270;28;20079;-33
2024/02/21 05:51:35;;;;;;;5.93;1.90;;;4.00;99.90;;;;;;5027817;28;20035;-33
2024/02/21 05:54:01;;;;;;;4.35;2.42;;;4.00;99.90;;;;;;5009196;28;20032;-33
2024/02/21 05:56:28;;;;;;;2.15;1.63;;;4.00;99.90;;;;;;5025296;28;20038;-33
2024/02/21 05:58:53;;;;;;;2.67;1.60;;;4.00;99.90;;;;;;5024238;28;20030;-38
2024/02/21 06:01:21;;;;;;;2.47;1.58;;;4.00;99.90;;;;;;5023579;28;20052;-36
2024/02/21 06:03:47;;;;;;;2.38;2.08;;;3.90;99.90;;;;;;5009244;28;20021;-35
2024/02/21 06:06:14;;;;;;;4.68;2.30;;;3.90;99.90;;;;;;5025679;28;20048;-33
2024/02/21 06:08:40;;;;;;;2.60;1.55;;;3.90;99.90;;;;;;5024529;28;20406;-35
2024/02/21 06:11:06;;;;;;;2.03;1.80;;;4.00;99.90;;;;;;5026676;28;20029;-35
2024/02/21 06:13:31;;;;;;;1.45;1.42;;;4.00;99.90;;;;;;5004860;28;20382;-33
2024/02/21 06:15:57;;;;;;;2.55;2.10;;;4.00;99.90;;;;;;5023249;28;20028;-35
2024/02/21 06:18:23;;;;;;;2.58;1.67;;;4.00;99.90;;;;;;5026575;28;20055;-33
2024/02/21 06:20:48;;;;;;;2.13;1.55;;;4.00;99.90;;;;;;5026342;28;20540;-43
2024/02/21 06:23:19;;;;;;;3.20;1.65;;;4.00;99.90;;;;;;5025945;28;20086;-43
2024/02/21 06:25:46;;;;;;;3.80;1.73;;;4.00;99.90;;;;;;5021927;28;20088;-42
2024/02/21 06:28:11;;;;;;;3.78;1.65;;;4.10;99.90;;;;;;5025022;28;20105;-42
2024/02/21 06:30:37;;;;;;;2.75;1.63;;;4.10;99.90;;;;;;5020388;28;20474;-32
2024/02/21 06:33:03;;;;;;;3.80;1.83;;;4.10;99.90;;;;;;5027555;28;20091;-32
2024/02/21 06:35:29;;;;;;;4.70;2.20;;;4.10;99.90;;;;;;5026014;28;20055;-32
2024/02/21 06:37:55;;;;;;;3.03;1.80;;;4.10;99.90;;;;;;5025985;28;20052;-34
2024/02/21 06:40:23;;;;;;;3.28;1.83;;;4.20;99.90;;;;;;5020010;28;20487;-35
2024/02/21 06:42:49;;;;;;;1.60;1.50;;;4.20;99.90;;;;;;5023887;28;20022;-33
2024/02/21 06:45:15;;;;;;;1.88;1.77;;;4.20;99.90;;;;;;5027801;28;20597;-32
2024/02/21 06:47:41;;;;;;;3.67;1.75;;;4.30;99.90;;;;;;5026449;28;20026;-33
2024/02/21 06:50:08;;;;;;;3.25;1.55;;;4.30;99.90;;;;;;5026296;28;20028;-33
2024/02/21 06:52:34;;;;;;;6.40;1.80;;;4.30;99.90;;;;;;5028166;28;20479;-30
2024/02/21 06:55:00;;;;;;;8.15;1.92;;;4.30;99.90;;;;;;5029387;28;20033;-31
2024/02/21 06:57:26;;;;;;;5.95;3.20;;;4.30;99.90;;;;;;5021840;28;20470;-30
2024/02/21 06:59:52;;;;;;;3.28;2.38;;;4.30;99.90;;;;;;5023449;28;20056;-32
2024/02/21 07:02:18;;;;;;;4.70;2.58;;;4.30;99.90;;;;;;5027087;28;20033;-31
2024/02/21 07:04:44;;;;;;;4.88;2.40;;;4.30;99.90;;;;;;5026925;28;20025;-33
2024/02/21 07:07:10;;;;;;;4.38;2.45;;;4.30;99.90;;;;;;5025631;28;20505;-33
2024/02/21 07:09:36;;;;;;;2.00;1.80;;;4.30;99.90;;;;;;5021746;28;20041;-36
2024/02/21 07:12:03;;;;;;;4.38;2.00;;;4.40;99.90;;;;;;5023452;28;20037;-32
2024/02/21 07:14:29;;;;;;;1.90;1.58;;;4.40;99.90;;;;;;5013072;28;20388;-31
2024/02/21 07:16:57;;;;;;;5.22;2.38;;;4.50;99.90;;;;;;5025568;28;20033;-32
2024/02/21 07:19:22;;;;;;;4.43;1.73;;;4.50;99.90;;;;;;5025430;28;20025;-33
2024/02/21 07:21:48;;;;;;;4.28;2.00;;;4.50;99.90;;;;;;5023375;28;20075;-33
2024/02/21 07:24:14;;;;;;;3.10;1.67;;;4.50;99.90;;;;;;5021482;28;20072;-32
2024/02/21 07:26:43;;;;;;;2.17;1.73;;;4.60;99.90;;;;;;5026746;28;20022;-33
2024/02/21 07:29:09;;;;;;;1.55;1.42;;;4.60;99.90;;;;;;5025340;28;20057;-32
2024/02/21 07:31:42;;;;;;;1.60;1.50;;;4.60;99.90;;;;;;5026718;28;20049;-31
2024/02/21 07:34:08;;;;;;;4.13;1.63;;;4.60;99.90;;;;;;5020467;28;20034;-32
2024/02/21 07:36:34;;;;;;;2.90;1.48;;;4.50;99.90;;;;;;5021961;28;20386;-32
2024/02/21 07:39:00;;;;;;;1.80;1.70;;;4.50;99.90;;;;;;5020899;28;20026;-37
2024/02/21 07:41:26;;;;;;;3.58;1.80;;;4.50;99.90;;;;;;5023854;28;20112;-41
2024/02/21 07:43:52;;;;;;;1.70;1.60;;;4.60;99.90;;;;;;5027837;28;20132;-38
2024/02/21 07:46:18;;;;;;;4.22;2.20;;;4.50;99.90;;;;;;5019807;28;20076;-41
2024/02/21 07:48:46;;;;;;;3.28;1.83;;;4.50;99.90;;;;;;5021868;28;20041;-41
2024/02/21 07:51:12;;;;;;;2.40;1.98;;;4.50;99.90;;;;;;5030275;28;20083;-40
2024/02/21 07:53:41;;;;;;;2.63;1.77;;;4.50;99.90;;;;;;5024113;28;20112;-40
2024/02/21 07:56:07;;;;;;;2.00;1.42;;;4.50;99.90;;;;;;5019464;28;20037;-39
2024/02/21 07:58:33;;;;;;;1.80;1.50;;;4.60;99.90;;;;;;5019184;28;20036;-41
2024/02/21 08:00:59;;;;;;;2.08;1.73;;;4.60;99.90;;;;;;5027107;28;20115;-41
2024/02/21 08:03:25;;;;;;;1.55;1.42;;;4.70;99.90;;;;;;5010628;28;20025;-41
2024/02/21 08:05:51;;;;;;;2.78;1.83;;;4.70;99.90;;;;;;5018469;28;20132;-36
2024/02/21 08:08:19;;;;;;;0.82;0.73;;;4.80;99.90;;;;;;5023113;28;20109;-37
2024/02/21 08:10:45;;;;;;;;;;;5.00;99.90;;;;;;5027206;28;20033;-40
2024/02/21 08:13:11;;;;;;;1.38;1.27;;;5.10;99.90;;;;;;5022470;28;19961;-40
2024/02/21 08:15:38;;;;;;;1.50;1.40;;;5.10;99.90;;;;;;5020876;28;20025;-38
2024/02/21 08:18:05;;;;;;;2.53;1.60;;;5.20;99.90;;;;;;5028473;28;20025;-41
2024/02/21 08:20:30;;;;;;;4.47;1.75;;;5.20;99.90;;;;;;5023165;28;20026;-35
2024/02/21 08:22:56;;;;;;;2.30;1.42;;;5.30;99.90;;;;;;5027327;28;20042;-38
2024/02/21 08:25:21;;;;;;;0.85;0.85;;;5.30;99.90;;;;;;5022230;28;20667;-41
2024/02/21 08:27:47;;;;;;;1.48;1.38;;;5.50;99.90;;;;;;5025855;28;20026;-41
2024/02/21 08:30:13;;;;;;;1.90;0.90;;;5.60;99.90;;;;;;5023754;28;20033;-40
2024/02/21 08:32:39;;;;;;;1.40;1.30;;;5.70;99.90;;;;;;5025858;28;20029;-43
2024/02/21 08:35:05;;;;;;;1.17;1.08;;;5.90;99.90;;;;;;5022539;28;20128;-40
2024/02/21 08:37:31;;;;;;;0.80;0.80;;;6.10;99.90;;;;;;5026831;28;20053;-41
2024/02/21 08:39:56;;;;;;;2.53;1.25;;;6.30;99.90;;;;;;5025234;28;20029;-39
2024/02/21 08:42:22;;;;;;;1.08;1.08;;;6.20;99.90;;;;;;5027363;28;20426;-40
2024/02/21 08:44:47;;;;;;;1.63;1.52;;;6.40;99.90;;;;;;5018016;28;20075;-38
2024/02/21 08:47:13;;;;;;;0.90;0.90;;;6.40;99.90;;;;;;5019895;28;20034;-40
2024/02/21 08:49:39;;;;;;;0.95;0.95;;;6.50;99.90;;;;;;5022625;28;20494;-40
2024/02/21 08:52:05;;;;;;;1.42;1.00;;;6.70;99.90;;;;;;5007906;28;20033;-35
2024/02/21 08:54:32;;;;;;;0.98;0.90;;;6.70;99.90;;;;;;5003029;28;20486;-32
2024/02/21 08:56:58;;;;;;;1.95;1.23;;;6.80;99.90;;;;;;5027327;28;20497;-36
2024/02/21 08:59:24;;;;;;;1.92;1.27;;;6.90;99.90;;;;;;5018786;28;20030;-34
2024/02/21 09:01:52;;;;;;;2.28;0.90;;;6.90;99.90;;;;;;5022483;28;20405;-33
2024/02/21 09:04:17;;;;;;;0.45;0.45;;;7.00;99.90;;;;;;5020514;28;20092;-35
2024/02/21 09:06:45;;;;;;;1.98;1.00;;;7.00;99.90;;;;;;5022464;28;20050;-34
2024/02/21 09:09:10;;;;;;;0.73;0.73;;;7.00;99.90;;;;;;5018655;28;20037;-33
2024/02/21 09:11:36;;;;;;;0.90;0.90;;;7.20;99.90;;;;;;5021172;28;20537;-34
2024/02/21 09:14:03;;;;;;;1.40;0.77;;;7.40;99.90;;;;;;5020956;28;20030;-32
2024/02/21 09:16:31;;;;;;;0.80;0.80;;;7.40;99.90;;;;;;5024039;28;20033;-34
2024/02/21 09:18:57;;;;;;;0.88;0.88;;;7.40;99.90;;;;;;5023812;28;20592;-36
2024/02/21 09:21:23;;;;;;;0.75;0.75;;;7.50;99.90;;;;;;5004573;28;20038;-32
2024/02/21 09:23:49;;;;;;;2.10;0.95;;;7.60;99.90;;;;;;5023805;28;20040;-40
2024/02/21 09:26:16;;;;;;;0.80;0.80;;;7.70;99.90;;;;;;5021918;28;20026;-33
2024/02/21 09:28:43;;;;;;;1.63;1.20;;;7.80;99.90;;;;;;5018058;28;20057;-33
2024/02/21 09:31:08;;;;;;;0.55;0.50;;;7.80;99.90;;;;;;4994413;28;20498;-33
2024/02/21 09:33:34;;;;;;;0.80;0.80;;;7.80;99.90;;;;;;5029148;28;20120;-34
2024/02/21 09:36:00;;;;;;;0.82;0.82;;;7.90;99.90;;;;;;5027048;28;20728;-33
2024/02/21 09:38:25;;;;;;;2.58;1.13;;;7.80;99.90;;;;;;5024462;28;20034;-34
2024/02/21 09:41:34;;;;;;;0.88;0.65;;;7.90;99.90;;;;;;5032284;28;20153;-36
2024/02/21 09:44:00;;;;;;;4.45;1.23;;;8.00;99.90;;;;;;5014505;28;20120;-34
2024/02/21 09:46:55;;;;;;;1.65;1.55;;;8.00;99.90;;;;;;5022897;28;20686;-35
2024/02/21 09:49:38;;;;;;;1.30;0.90;;;8.00;99.90;;;;;;5023358;28;20060;-35
2024/02/21 09:52:06;;;;;;;1.30;1.20;;;8.20;99.90;;;;;;5032671;28;20470;-42
2024/02/21 09:54:35;;;;;;;1.77;1.30;;;8.40;99.90;;;;;;5034158;28;20616;-41
2024/02/21 09:57:01;;;;;;;0.57;0.55;;;8.50;99.90;;;;;;5025675;28;20069;-39
2024/02/21 09:59:28;;;;;;;0.98;0.90;;;8.30;99.90;;;;;;5028041;28;20620;-41
2024/02/21 10:01:54;;;;;;;1.00;1.00;;;8.40;99.90;;;;;;5025454;28;20040;-34
2024/02/21 10:04:20;;;;;;;2.85;1.02;;;8.40;99.90;;;;;;5028703;28;20025;-33
2024/02/21 10:06:46;;;;;;;4.18;1.10;;;8.40;99.90;;;;;;5031243;28;20045;-34
2024/02/21 10:09:27;;;;;;;1.05;1.00;;;8.50;99.90;;;;;;5028118;28;20040;-33
2024/02/21 10:11:54;;;;;;;0.80;0.80;;;8.60;99.90;;;;;;5027747;28;20025;-36
2024/02/21 10:14:19;;;;;;;1.67;1.00;;;8.70;99.90;;;;;;5025253;28;20550;-35
2024/02/21 10:16:48;;;;;;;1.88;1.00;;;8.70;99.90;;;;;;5024970;28;20121;-33
2024/02/21 10:19:18;;;;;;;0.98;0.90;;;8.80;99.90;;;;;;5029068;28;20657;-35
2024/02/21 10:21:44;;;;;;;1.25;1.20;;;8.90;99.90;;;;;;5027277;28;20029;-33
2024/02/21 10:24:12;;;;;;;0.85;0.85;;;9.10;99.90;;;;;;5025546;28;20049;-33
2024/02/21 10:26:38;;;;;;;1.10;1.00;;;9.20;99.90;;;;;;5025076;28;20148;-35
2024/02/21 10:29:04;;;;;;;0.50;0.50;;;9.20;99.90;;;;;;5026033;28;20125;-35
2024/02/21 10:31:30;;;;;;;1.25;0.98;;;9.30;97.10;;;;;;5027591;28;20036;-33
2024/02/21 10:34:05;;;;;;;1.35;1.10;;;9.40;99.90;;;;;;5032807;28;20025;-35
2024/02/21 10:36:31;;;;;;;1.33;0.70;;;9.50;99.90;;;;;;5018768;28;20037;-33
2024/02/21 10:38:57;;;;;;;1.40;0.93;;;9.60;96.10;;;;;;5006360;28;20444;-35
2024/02/21 10:41:24;;;;;;;1.45;0.73;;;9.50;97.90;;;;;;5007460;28;20079;-34
2024/02/21 10:43:54;;;;;;;0.50;0.50;;;9.40;95.50;;;;;;5028864;28;20029;-33
2024/02/21 10:46:22;;;;;;;1.27;0.73;;;9.40;95.50;;;;;;5021997;28;20033;-34
2024/02/21 10:48:56;;;;;;;2.13;1.00;;;9.40;95.70;;;;;;5018900;28;20052;-35
2024/02/21 10:51:28;;;;;;;3.13;1.05;;;9.50;99.30;;;;;;5024155;28;20501;-33
2024/02/21 10:54:32;;;;;;;0.50;0.50;;;9.60;99.90;;;;;;5022124;28;20060;-38
2024/02/21 10:57:00;;;;;;;0.85;0.70;;;9.80;95.60;;;;;;5021587;28;20025;-33
2024/02/21 10:59:27;;;;;;;;;;;9.80;90.00;;;;;;5022565;28;20566;-33
2024/02/21 11:01:52;;;;;;;0.68;0.55;;;9.80;92.50;;;;;;5023528;28;20375;-36
2024/02/21 11:04:18;;;;;;;2.25;0.82;;;9.90;89.70;;;;;;5022274;28;20036;-33
2024/02/21 11:06:45;;;;;;;1.23;0.75;;;9.90;90.50;;;;;;5021934;28;20116;-33
2024/02/21 11:09:11;;;;;;;0.40;0.40;;;10.00;93.70;;;;;;5023033;28;20589;-33
2024/02/21 11:11:56;;;;;;;1.38;0.55;;;10.10;92.20;;;;;;5002075;28;20057;-34
2024/02/21 11:14:21;;;;;;;0.73;0.73;;;10.00;85.20;;;;;;5020543;28;20034;-34
2024/02/21 11:16:47;;;;;;;0.85;0.52;;;10.00;90.10;;;;;;5005801;28;20108;-34
2024/02/21 11:19:27;;;;;;;0.50;0.50;;;10.00;81.60;;;;;;5024610;28;20685;-32
2024/02/21 11:21:55;;;;;;;0.52;0.52;;;10.10;89.90;;;;;;5020543;28;20025;-38
2024/02/21 11:24:33;;;;;;;0.45;0.45;;;10.30;92.90;;;;;;5023554;28;20533;-40
2024/02/21 11:27:08;;;;;;;;;;;10.30;86.70;;;;;;5006770;28;20026;-40
2024/02/21 11:29:41;;;;;;;0.60;0.60;;;10.20;78.20;;;;;;4997414;28;19921;-40
2024/02/21 11:32:11;;;;;;;0.40;0.40;;;10.20;79.60;;;;;;5018910;28;20077;-40
2024/02/21 11:34:36;;;;;;;0.63;0.63;;;10.20;87.20;;;;;;5008289;28;20510;-40
2024/02/21 11:37:12;;;;;;;1.10;0.80;;;10.10;84.10;;;;;;5018655;28;20037;-41
2024/02/21 11:39:39;;;;;;;0.80;0.80;;;10.20;81.40;;;;;;5020641;28;20382;-40
2024/02/21 11:42:07;;;;;;;0.80;0.68;;;10.30;83.10;;;;;;5024786;28;20038;-41
2024/02/21 11:44:34;;;;;;;;;;;10.50;92.20;;;;;;5000987;28;20411;-40
2024/02/21 11:46:59;;;;;;;0.50;0.50;;;10.40;80.00;;;;;;5021531;28;19955;-41
2024/02/21 11:49:36;;;;;;;0.47;0.47;;;10.60;85.00;;;;;;5023877;28;20495;-41
2024/02/21 11:52:06;;;;;;;0.70;0.70;;;10.70;81.40;;;;;;5018855;28;20408;-40
2024/02/21 11:54:33;;;;;;;0.98;0.68;;;10.70;72.50;;;;;;5019926;28;20076;-40
2024/02/21 11:57:00;;;;;;;0.85;0.85;;;10.70;71.20;;;;;;5010690;28;20639;-40
2024/02/21 11:59:25;;;;;;;0.50;0.50;;;10.70;73.30;;;;;;5018369;28;20051;-39
2024/02/21 12:01:53;;;;;;;1.45;0.98;;;10.60;73.50;;;;;;5022743;28;20120;-35
2024/02/21 12:04:20;;;;;;;0.77;0.77;;;10.70;70.00;;;;;;5027216;28;20030;-41
2024/02/21 12:06:46;;;;;;;0.80;0.70;;;10.80;84.90;;;;;;5025493;28;20032;-40
2024/02/21 12:09:19;;;;;;;1.67;0.88;;;10.90;76.70;;;;;;5022146;28;20643;-39
2024/02/21 12:11:45;;;;;;;1.02;0.90;;;10.90;79.60;;;;;;5029095;28;20036;-33
2024/02/21 12:14:16;;;;;;;0.93;0.80;;;11.00;76.10;;;;;;5020679;28;20068;-35
2024/02/21 12:16:44;;;;;;;0.82;0.75;;;11.20;77.00;;;;;;5027713;28;20040;-33
2024/02/21 12:19:10;;;;;;;5.78;1.00;;;11.10;74.60;;;;;;5015042;28;20030;-37
2024/02/21 12:21:38;;;;;;;1.17;0.85;;;11.10;73.80;;;;;;5026787;28;20079;-34
2024/02/21 12:24:18;;;;;;;0.63;0.63;;;11.10;77.30;;;;;;5018529;28;20462;-32
2024/02/21 12:26:43;;;;;;;2.03;0.82;;;11.20;72.20;;;;;;5022887;28;20034;-33
2024/02/21 12:29:09;;;;;;;0.95;0.73;;;11.30;77.20;;;;;;5019612;28;20537;-33
2024/02/21 12:31:38;;;;;;;0.90;0.88;;;11.30;69.80;;;;;;5028844;28;20030;-31
2024/02/21 12:34:05;;;;;;;0.60;0.60;;;11.40;73.10;;;;;;5018938;28;20034;-32
2024/02/21 12:36:33;;;;;;;0.93;0.63;;;11.30;66.10;;;;;;5023197;28;20406;-34
2024/02/21 12:39:01;;;;;;;1.92;0.82;;;11.30;71.50;;;;;;5021870;28;20431;-33
2024/02/21 12:41:27;;;;;;;1.20;0.63;;;11.30;74.00;;;;;;5006834;28;20490;-33
2024/02/21 12:43:53;;;;;;;0.80;0.80;;;11.40;78.60;;;;;;5025618;28;20492;-32
2024/02/21 12:46:19;;;;;;;1.00;0.73;;;11.40;74.50;;;;;;5027045;28;20109;-31
2024/02/21 12:48:45;;;;;;;0.85;0.82;;;11.50;77.30;;;;;;5024082;28;20025;-33
2024/02/21 12:51:11;;;;;;;1.83;0.70;;;11.50;74.00;;;;;;5023521;28;20037;-32
2024/02/21 12:53:36;;;;;;;2.13;0.77;;;11.50;70.80;;;;;;5008577;28;20040;-35
2024/02/21 12:56:02;;;;;;;0.82;0.70;;;11.50;70.10;;;;;;5021023;28;20034;-32